sensor_id;sensor_type;location;lat;lon;timestamp;P1;durP1;ratioP1;P2;durP2;ratioP2
67185;SDS011;54116;53.518;49.398;2024-03-02T00:00:03;13.82;;;4.80;;
67185;SDS011;54116;53.518;49.398;2024-03-02T00:02:45;12.02;;;4.50;;
67185;SDS011;54116;53.518;49.398;2024-03-02T00:05:12;19.67;;;5.40;;
67185;SDS011;54116;53.518;49.398;2024-03-02T00:07:41;13.30;;;5.10;;
67185;SDS011;54116;53.518;49.398;2024-03-02T00:10:08;16.65;;;5.10;;
67185;SDS011;54116;53.518;49.398;2024-03-02T00:12:39;17.90;;;5.80;;
67185;SDS011;54116;53.518;49.398;2024-03-02T00:15:51;15.80;;;5.35;;
67185;SDS011;54116;53.518;49.398;2024-03-02T00:18:11;13.52;;;4.32;;
67185;SDS011;54116;53.518;49.398;2024-03-02T00:20:38;14.88;;;5.25;;
67185;SDS011;54116;53.518;49.398;2024-03-02T00:23:06;14.65;;;4.82;;
67185;SDS011;54116;53.518;49.398;2024-03-02T00:25:38;14.50;;;4.90;;
67185;SDS011;54116;53.518;49.398;2024-03-02T00:28:16;15.38;;;5.00;;
67185;SDS011;54116;53.518;49.398;2024-03-02T00:30:50;13.55;;;4.78;;
67185;SDS011;54116;53.518;49.398;2024-03-02T00:33:18;16.40;;;5.10;;
67185;SDS011;54116;53.518;49.398;2024-03-02T00:35:45;17.92;;;5.25;;
67185;SDS011;54116;53.518;49.398;2024-03-02T00:38:11;13.50;;;4.95;;
67185;SDS011;54116;53.518;49.398;2024-03-02T00:40:41;14.70;;;4.47;;
67185;SDS011;54116;53.518;49.398;2024-03-02T00:46:05;16.10;;;5.18;;
67185;SDS011;54116;53.518;49.398;2024-03-02T00:51:02;16.83;;;5.13;;
67185;SDS011;54116;53.518;49.398;2024-03-02T00:53:29;15.05;;;5.40;;
67185;SDS011;54116;53.518;49.398;2024-03-02T00:55:58;14.68;;;5.13;;
67185;SDS011;54116;53.518;49.398;2024-03-02T00:58:25;15.43;;;4.90;;
67185;SDS011;54116;53.518;49.398;2024-03-02T01:00:51;14.80;;;5.07;;
67185;SDS011;54116;53.518;49.398;2024-03-02T01:03:17;13.82;;;5.25;;
67185;SDS011;54116;53.518;49.398;2024-03-02T01:05:44;13.00;;;4.95;;
67185;SDS011;54116;53.518;49.398;2024-03-02T01:08:11;14.35;;;5.03;;
67185;SDS011;54116;53.518;49.398;2024-03-02T01:10:38;17.58;;;5.57;;
67185;SDS011;54116;53.518;49.398;2024-03-02T01:13:05;14.45;;;4.95;;
67185;SDS011;54116;53.518;49.398;2024-03-02T01:15:31;18.58;;;4.90;;
67185;SDS011;54116;53.518;49.398;2024-03-02T01:17:58;15.20;;;5.03;;
67185;SDS011;54116;53.518;49.398;2024-03-02T01:20:24;12.85;;;4.50;;
67185;SDS011;54116;53.518;49.398;2024-03-02T01:22:50;18.27;;;5.90;;
67185;SDS011;54116;53.518;49.398;2024-03-02T01:25:16;16.40;;;4.68;;
67185;SDS011;54116;53.518;49.398;2024-03-02T01:27:43;15.80;;;4.30;;
67185;SDS011;54116;53.518;49.398;2024-03-02T01:30:09;16.85;;;5.28;;
67185;SDS011;54116;53.518;49.398;2024-03-02T01:32:39;18.42;;;5.30;;
67185;SDS011;54116;53.518;49.398;2024-03-02T01:35:05;15.68;;;4.88;;
67185;SDS011;54116;53.518;49.398;2024-03-02T01:37:33;14.25;;;4.65;;
67185;SDS011;54116;53.518;49.398;2024-03-02T01:39:59;15.63;;;5.05;;
67185;SDS011;54116;53.518;49.398;2024-03-02T01:42:25;14.52;;;4.97;;
67185;SDS011;54116;53.518;49.398;2024-03-02T01:44:51;14.23;;;4.35;;
67185;SDS011;54116;53.518;49.398;2024-03-02T01:47:17;15.43;;;4.68;;
67185;SDS011;54116;53.518;49.398;2024-03-02T01:49:43;13.52;;;3.97;;
67185;SDS011;54116;53.518;49.398;2024-03-02T01:52:10;15.30;;;4.60;;
67185;SDS011;54116;53.518;49.398;2024-03-02T01:54:36;12.50;;;4.35;;
67185;SDS011;54116;53.518;49.398;2024-03-02T01:57:03;17.50;;;4.65;;
67185;SDS011;54116;53.518;49.398;2024-03-02T01:59:29;13.38;;;4.80;;
67185;SDS011;54116;53.518;49.398;2024-03-02T02:01:55;12.18;;;4.28;;
67185;SDS011;54116;53.518;49.398;2024-03-02T02:04:21;10.38;;;3.78;;
67185;SDS011;54116;53.518;49.398;2024-03-02T02:06:52;16.02;;;4.82;;
67185;SDS011;54116;53.518;49.398;2024-03-02T02:09:19;11.77;;;4.50;;
67185;SDS011;54116;53.518;49.398;2024-03-02T02:11:45;16.17;;;4.75;;
67185;SDS011;54116;53.518;49.398;2024-03-02T02:14:11;14.88;;;5.13;;
67185;SDS011;54116;53.518;49.398;2024-03-02T02:16:37;15.10;;;4.13;;
67185;SDS011;54116;53.518;49.398;2024-03-02T02:19:03;14.65;;;4.60;;
67185;SDS011;54116;53.518;49.398;2024-03-02T02:21:30;14.18;;;4.72;;
67185;SDS011;54116;53.518;49.398;2024-03-02T02:23:56;14.70;;;4.45;;
67185;SDS011;54116;53.518;49.398;2024-03-02T02:26:22;14.30;;;4.93;;
67185;SDS011;54116;53.518;49.398;2024-03-02T02:28:48;14.73;;;5.13;;
67185;SDS011;54116;53.518;49.398;2024-03-02T02:31:14;13.48;;;4.88;;
67185;SDS011;54116;53.518;49.398;2024-03-02T02:33:41;13.70;;;4.28;;
67185;SDS011;54116;53.518;49.398;2024-03-02T02:36:08;15.50;;;5.05;;
67185;SDS011;54116;53.518;49.398;2024-03-02T02:38:36;14.02;;;5.18;;
67185;SDS011;54116;53.518;49.398;2024-03-02T02:41:05;15.60;;;5.35;;
67185;SDS011;54116;53.518;49.398;2024-03-02T02:43:32;18.83;;;5.10;;
67185;SDS011;54116;53.518;49.398;2024-03-02T02:45:58;12.82;;;4.53;;
67185;SDS011;54116;53.518;49.398;2024-03-02T02:48:26;19.25;;;5.80;;
67185;SDS011;54116;53.518;49.398;2024-03-02T02:53:18;14.35;;;5.25;;
67185;SDS011;54116;53.518;49.398;2024-03-02T02:55:44;17.25;;;5.57;;
67185;SDS011;54116;53.518;49.398;2024-03-02T02:58:10;15.07;;;5.82;;
67185;SDS011;54116;53.518;49.398;2024-03-02T03:00:36;14.90;;;5.20;;
67185;SDS011;54116;53.518;49.398;2024-03-02T03:03:02;13.55;;;5.05;;
67185;SDS011;54116;53.518;49.398;2024-03-02T03:05:29;14.13;;;5.05;;
67185;SDS011;54116;53.518;49.398;2024-03-02T03:07:55;16.02;;;5.50;;
67185;SDS011;54116;53.518;49.398;2024-03-02T03:10:22;11.30;;;4.68;;
67185;SDS011;54116;53.518;49.398;2024-03-02T03:12:51;14.10;;;5.30;;
67185;SDS011;54116;53.518;49.398;2024-03-02T03:15:17;18.08;;;5.22;;
67185;SDS011;54116;53.518;49.398;2024-03-02T03:17:43;14.25;;;4.90;;
67185;SDS011;54116;53.518;49.398;2024-03-02T03:20:11;15.05;;;5.32;;
67185;SDS011;54116;53.518;49.398;2024-03-02T03:22:38;16.08;;;5.35;;
67185;SDS011;54116;53.518;49.398;2024-03-02T03:25:04;14.07;;;4.88;;
67185;SDS011;54116;53.518;49.398;2024-03-02T03:27:31;13.48;;;5.13;;
67185;SDS011;54116;53.518;49.398;2024-03-02T03:29:57;15.57;;;5.25;;
67185;SDS011;54116;53.518;49.398;2024-03-02T03:32:23;16.20;;;4.97;;
67185;SDS011;54116;53.518;49.398;2024-03-02T03:34:50;15.63;;;5.18;;
67185;SDS011;54116;53.518;49.398;2024-03-02T03:37:16;15.40;;;5.22;;
67185;SDS011;54116;53.518;49.398;2024-03-02T03:39:42;12.52;;;4.53;;
67185;SDS011;54116;53.518;49.398;2024-03-02T03:42:08;15.75;;;5.05;;
67185;SDS011;54116;53.518;49.398;2024-03-02T03:44:34;15.00;;;5.25;;
67185;SDS011;54116;53.518;49.398;2024-03-02T03:47:01;18.67;;;6.40;;
67185;SDS011;54116;53.518;49.398;2024-03-02T03:49:28;13.15;;;5.30;;
67185;SDS011;54116;53.518;49.398;2024-03-02T03:51:54;15.05;;;5.45;;
67185;SDS011;54116;53.518;49.398;2024-03-02T03:54:20;17.80;;;6.20;;
67185;SDS011;54116;53.518;49.398;2024-03-02T03:56:46;20.10;;;6.07;;
67185;SDS011;54116;53.518;49.398;2024-03-02T03:59:13;18.45;;;5.93;;
67185;SDS011;54116;53.518;49.398;2024-03-02T04:01:39;19.45;;;6.32;;
67185;SDS011;54116;53.518;49.398;2024-03-02T04:04:05;15.40;;;5.88;;
67185;SDS011;54116;53.518;49.398;2024-03-02T04:06:31;16.00;;;5.53;;
67185;SDS011;54116;53.518;49.398;2024-03-02T04:08:57;17.30;;;5.18;;
67185;SDS011;54116;53.518;49.398;2024-03-02T04:11:23;16.83;;;5.88;;
67185;SDS011;54116;53.518;49.398;2024-03-02T04:13:49;19.50;;;5.63;;
67185;SDS011;54116;53.518;49.398;2024-03-02T04:16:15;17.80;;;5.43;;
67185;SDS011;54116;53.518;49.398;2024-03-02T04:18:41;15.65;;;5.72;;
67185;SDS011;54116;53.518;49.398;2024-03-02T04:21:07;14.82;;;5.78;;
67185;SDS011;54116;53.518;49.398;2024-03-02T04:23:33;14.52;;;5.63;;
67185;SDS011;54116;53.518;49.398;2024-03-02T04:25:59;14.95;;;5.32;;
67185;SDS011;54116;53.518;49.398;2024-03-02T04:28:25;16.33;;;5.90;;
67185;SDS011;54116;53.518;49.398;2024-03-02T04:30:51;13.98;;;6.00;;
67185;SDS011;54116;53.518;49.398;2024-03-02T04:33:17;15.07;;;5.50;;
67185;SDS011;54116;53.518;49.398;2024-03-02T04:35:44;15.77;;;5.53;;
67185;SDS011;54116;53.518;49.398;2024-03-02T04:38:10;14.88;;;4.63;;
67185;SDS011;54116;53.518;49.398;2024-03-02T04:40:36;14.55;;;5.50;;
67185;SDS011;54116;53.518;49.398;2024-03-02T04:43:03;12.00;;;4.50;;
67185;SDS011;54116;53.518;49.398;2024-03-02T04:45:29;16.52;;;5.45;;
67185;SDS011;54116;53.518;49.398;2024-03-02T04:47:55;15.65;;;5.68;;
67185;SDS011;54116;53.518;49.398;2024-03-02T04:50:22;13.90;;;5.55;;
67185;SDS011;54116;53.518;49.398;2024-03-02T04:55:14;18.42;;;6.10;;
67185;SDS011;54116;53.518;49.398;2024-03-02T04:57:43;18.08;;;6.10;;
67185;SDS011;54116;53.518;49.398;2024-03-02T05:00:10;19.38;;;6.25;;
67185;SDS011;54116;53.518;49.398;2024-03-02T05:02:37;16.90;;;5.78;;
67185;SDS011;54116;53.518;49.398;2024-03-02T05:05:03;18.25;;;6.25;;
67185;SDS011;54116;53.518;49.398;2024-03-02T05:07:30;14.75;;;5.40;;
67185;SDS011;54116;53.518;49.398;2024-03-02T05:09:56;16.08;;;5.32;;
67185;SDS011;54116;53.518;49.398;2024-03-02T05:12:23;16.42;;;5.63;;
67185;SDS011;54116;53.518;49.398;2024-03-02T05:15:07;16.75;;;6.07;;
67185;SDS011;54116;53.518;49.398;2024-03-02T05:17:41;15.88;;;6.00;;
67185;SDS011;54116;53.518;49.398;2024-03-02T05:20:11;15.77;;;5.50;;
67185;SDS011;54116;53.518;49.398;2024-03-02T05:22:37;16.17;;;6.55;;
67185;SDS011;54116;53.518;49.398;2024-03-02T05:25:05;18.27;;;5.80;;
67185;SDS011;54116;53.518;49.398;2024-03-02T05:27:32;14.23;;;5.85;;
67185;SDS011;54116;53.518;49.398;2024-03-02T05:30:01;17.30;;;5.68;;
67185;SDS011;54116;53.518;49.398;2024-03-02T05:32:28;16.83;;;5.75;;
67185;SDS011;54116;53.518;49.398;2024-03-02T05:34:54;15.48;;;5.68;;
67185;SDS011;54116;53.518;49.398;2024-03-02T05:37:20;16.05;;;5.47;;
67185;SDS011;54116;53.518;49.398;2024-03-02T05:39:46;14.25;;;5.53;;
67185;SDS011;54116;53.518;49.398;2024-03-02T05:42:12;12.98;;;5.30;;
67185;SDS011;54116;53.518;49.398;2024-03-02T05:44:39;15.23;;;5.35;;
67185;SDS011;54116;53.518;49.398;2024-03-02T05:49:34;16.13;;;5.90;;
67185;SDS011;54116;53.518;49.398;2024-03-02T05:52:01;14.63;;;5.30;;
67185;SDS011;54116;53.518;49.398;2024-03-02T05:54:27;13.80;;;5.72;;
67185;SDS011;54116;53.518;49.398;2024-03-02T05:56:53;14.40;;;5.50;;
67185;SDS011;54116;53.518;49.398;2024-03-02T05:59:19;17.45;;;5.72;;
67185;SDS011;54116;53.518;49.398;2024-03-02T06:01:45;15.82;;;5.70;;
67185;SDS011;54116;53.518;49.398;2024-03-02T06:04:12;13.30;;;5.18;;
67185;SDS011;54116;53.518;49.398;2024-03-02T06:06:39;15.52;;;6.15;;
67185;SDS011;54116;53.518;49.398;2024-03-02T06:09:06;15.32;;;5.97;;
67185;SDS011;54116;53.518;49.398;2024-03-02T06:11:38;16.85;;;6.68;;
67185;SDS011;54116;53.518;49.398;2024-03-02T06:14:05;15.40;;;5.22;;
67185;SDS011;54116;53.518;49.398;2024-03-02T06:16:33;13.77;;;5.63;;
67185;SDS011;54116;53.518;49.398;2024-03-02T06:19:00;13.68;;;5.85;;
67185;SDS011;54116;53.518;49.398;2024-03-02T06:23:52;13.90;;;4.78;;
67185;SDS011;54116;53.518;49.398;2024-03-02T06:26:19;13.73;;;4.88;;
67185;SDS011;54116;53.518;49.398;2024-03-02T06:28:45;11.40;;;4.50;;
67185;SDS011;54116;53.518;49.398;2024-03-02T06:31:12;13.55;;;4.35;;
67185;SDS011;54116;53.518;49.398;2024-03-02T06:33:38;13.73;;;4.95;;
67185;SDS011;54116;53.518;49.398;2024-03-02T06:36:05;13.00;;;4.57;;
67185;SDS011;54116;53.518;49.398;2024-03-02T06:38:35;12.23;;;4.07;;
67185;SDS011;54116;53.518;49.398;2024-03-02T06:41:01;13.15;;;4.78;;
67185;SDS011;54116;53.518;49.398;2024-03-02T06:43:27;11.75;;;4.40;;
67185;SDS011;54116;53.518;49.398;2024-03-02T06:45:53;13.82;;;4.43;;
67185;SDS011;54116;53.518;49.398;2024-03-02T06:48:19;15.52;;;4.90;;
67185;SDS011;54116;53.518;49.398;2024-03-02T06:50:46;10.38;;;4.43;;
67185;SDS011;54116;53.518;49.398;2024-03-02T06:53:16;12.05;;;4.78;;
67185;SDS011;54116;53.518;49.398;2024-03-02T06:55:46;14.50;;;4.78;;
67185;SDS011;54116;53.518;49.398;2024-03-02T06:58:12;10.80;;;4.38;;
67185;SDS011;54116;53.518;49.398;2024-03-02T07:00:40;10.55;;;4.32;;
67185;SDS011;54116;53.518;49.398;2024-03-02T07:03:08;11.57;;;4.28;;
67185;SDS011;54116;53.518;49.398;2024-03-02T07:05:35;13.40;;;4.50;;
67185;SDS011;54116;53.518;49.398;2024-03-02T07:08:01;10.82;;;3.90;;
67185;SDS011;54116;53.518;49.398;2024-03-02T07:10:28;10.68;;;3.92;;
67185;SDS011;54116;53.518;49.398;2024-03-02T07:12:54;10.13;;;4.45;;
67185;SDS011;54116;53.518;49.398;2024-03-02T07:15:20;10.60;;;3.63;;
67185;SDS011;54116;53.518;49.398;2024-03-02T07:17:52;9.50;;;3.70;;
67185;SDS011;54116;53.518;49.398;2024-03-02T07:20:18;10.65;;;4.13;;
67185;SDS011;54116;53.518;49.398;2024-03-02T07:22:44;9.77;;;3.72;;
67185;SDS011;54116;53.518;49.398;2024-03-02T07:25:10;9.70;;;3.38;;
67185;SDS011;54116;53.518;49.398;2024-03-02T07:27:37;10.15;;;3.80;;
67185;SDS011;54116;53.518;49.398;2024-03-02T07:30:04;9.05;;;3.58;;
67185;SDS011;54116;53.518;49.398;2024-03-02T07:32:30;10.18;;;3.33;;
67185;SDS011;54116;53.518;49.398;2024-03-02T07:34:56;9.77;;;3.92;;
67185;SDS011;54116;53.518;49.398;2024-03-02T07:37:23;8.80;;;3.60;;
67185;SDS011;54116;53.518;49.398;2024-03-02T07:39:50;9.43;;;3.65;;
67185;SDS011;54116;53.518;49.398;2024-03-02T07:42:16;8.95;;;3.97;;
67185;SDS011;54116;53.518;49.398;2024-03-02T07:44:46;8.63;;;3.60;;
67185;SDS011;54116;53.518;49.398;2024-03-02T07:47:12;9.13;;;3.67;;
67185;SDS011;54116;53.518;49.398;2024-03-02T07:49:38;9.15;;;4.10;;
67185;SDS011;54116;53.518;49.398;2024-03-02T07:54:31;9.32;;;3.25;;
67185;SDS011;54116;53.518;49.398;2024-03-02T07:56:57;8.45;;;3.00;;
67185;SDS011;54116;53.518;49.398;2024-03-02T07:59:23;6.93;;;3.15;;
67185;SDS011;54116;53.518;49.398;2024-03-02T08:01:49;8.82;;;3.17;;
67185;SDS011;54116;53.518;49.398;2024-03-02T08:04:16;9.10;;;3.35;;
67185;SDS011;54116;53.518;49.398;2024-03-02T08:09:08;9.48;;;3.88;;
67185;SDS011;54116;53.518;49.398;2024-03-02T08:11:35;9.38;;;3.42;;
67185;SDS011;54116;53.518;49.398;2024-03-02T08:14:02;11.13;;;3.55;;
67185;SDS011;54116;53.518;49.398;2024-03-02T08:18:55;7.38;;;2.95;;
67185;SDS011;54116;53.518;49.398;2024-03-02T08:21:23;8.93;;;3.53;;
67185;SDS011;54116;53.518;49.398;2024-03-02T08:23:50;8.27;;;2.95;;
67185;SDS011;54116;53.518;49.398;2024-03-02T08:26:16;8.90;;;3.35;;
67185;SDS011;54116;53.518;49.398;2024-03-02T08:28:42;11.60;;;3.58;;
67185;SDS011;54116;53.518;49.398;2024-03-02T08:31:08;8.95;;;2.92;;
67185;SDS011;54116;53.518;49.398;2024-03-02T08:33:35;7.50;;;2.67;;
67185;SDS011;54116;53.518;49.398;2024-03-02T08:36:01;11.38;;;3.13;;
67185;SDS011;54116;53.518;49.398;2024-03-02T08:38:28;9.45;;;3.17;;
67185;SDS011;54116;53.518;49.398;2024-03-02T08:40:54;9.05;;;3.83;;
67185;SDS011;54116;53.518;49.398;2024-03-02T08:45:48;9.55;;;3.47;;
67185;SDS011;54116;53.518;49.398;2024-03-02T08:48:16;12.02;;;3.38;;
67185;SDS011;54116;53.518;49.398;2024-03-02T08:50:43;10.57;;;3.42;;
67185;SDS011;54116;53.518;49.398;2024-03-02T08:53:09;10.50;;;3.72;;
67185;SDS011;54116;53.518;49.398;2024-03-02T08:55:35;9.45;;;3.35;;
67185;SDS011;54116;53.518;49.398;2024-03-02T08:58:01;7.75;;;2.83;;
67185;SDS011;54116;53.518;49.398;2024-03-02T09:02:53;10.60;;;3.63;;
67185;SDS011;54116;53.518;49.398;2024-03-02T09:05:20;9.02;;;3.45;;
67185;SDS011;54116;53.518;49.398;2024-03-02T09:07:46;9.52;;;2.42;;
67185;SDS011;54116;53.518;49.398;2024-03-02T09:10:12;9.50;;;3.50;;
67185;SDS011;54116;53.518;49.398;2024-03-02T09:12:38;8.00;;;3.25;;
67185;SDS011;54116;53.518;49.398;2024-03-02T09:15:06;9.43;;;3.75;;
67185;SDS011;54116;53.518;49.398;2024-03-02T09:17:33;12.20;;;5.60;;
67185;SDS011;54116;53.518;49.398;2024-03-02T09:19:59;11.30;;;4.22;;
67185;SDS011;54116;53.518;49.398;2024-03-02T09:22:25;7.80;;;3.80;;
67185;SDS011;54116;53.518;49.398;2024-03-02T09:24:51;8.23;;;3.40;;
67185;SDS011;54116;53.518;49.398;2024-03-02T09:27:37;8.20;;;2.95;;
67185;SDS011;54116;53.518;49.398;2024-03-02T09:30:12;22.33;;;11.30;;
67185;SDS011;54116;53.518;49.398;2024-03-02T09:32:39;13.45;;;4.10;;
67185;SDS011;54116;53.518;49.398;2024-03-02T09:35:09;8.50;;;3.35;;
67185;SDS011;54116;53.518;49.398;2024-03-02T09:37:37;16.13;;;6.38;;
67185;SDS011;54116;53.518;49.398;2024-03-02T09:40:04;10.75;;;4.70;;
67185;SDS011;54116;53.518;49.398;2024-03-02T09:42:31;14.35;;;6.55;;
67185;SDS011;54116;53.518;49.398;2024-03-02T09:47:24;18.63;;;8.63;;
67185;SDS011;54116;53.518;49.398;2024-03-02T09:49:51;10.05;;;3.60;;
67185;SDS011;54116;53.518;49.398;2024-03-02T09:52:17;10.02;;;4.55;;
67185;SDS011;54116;53.518;49.398;2024-03-02T09:57:09;8.60;;;3.15;;
67185;SDS011;54116;53.518;49.398;2024-03-02T09:59:35;7.80;;;2.80;;
67185;SDS011;54116;53.518;49.398;2024-03-02T10:02:20;7.53;;;2.80;;
67185;SDS011;54116;53.518;49.398;2024-03-02T10:04:47;7.38;;;2.47;;
67185;SDS011;54116;53.518;49.398;2024-03-02T10:07:15;9.00;;;3.15;;
67185;SDS011;54116;53.518;49.398;2024-03-02T10:09:44;7.95;;;2.72;;
67185;SDS011;54116;53.518;49.398;2024-03-02T10:12:11;7.15;;;2.72;;
67185;SDS011;54116;53.518;49.398;2024-03-02T10:14:38;7.68;;;2.85;;
67185;SDS011;54116;53.518;49.398;2024-03-02T10:17:06;8.07;;;3.65;;
67185;SDS011;54116;53.518;49.398;2024-03-02T10:19:34;6.82;;;2.70;;
67185;SDS011;54116;53.518;49.398;2024-03-02T10:22:01;11.93;;;2.95;;
67185;SDS011;54116;53.518;49.398;2024-03-02T10:24:34;7.30;;;2.60;;
67185;SDS011;54116;53.518;49.398;2024-03-02T10:27:06;9.75;;;3.17;;
67185;SDS011;54116;53.518;49.398;2024-03-02T10:29:38;7.95;;;2.75;;
67185;SDS011;54116;53.518;49.398;2024-03-02T10:32:07;7.70;;;2.78;;
67185;SDS011;54116;53.518;49.398;2024-03-02T10:34:35;32.05;;;9.95;;
67185;SDS011;54116;53.518;49.398;2024-03-02T10:37:01;8.27;;;3.30;;
67185;SDS011;54116;53.518;49.398;2024-03-02T10:41:54;7.32;;;2.72;;
67185;SDS011;54116;53.518;49.398;2024-03-02T10:44:22;12.55;;;2.80;;
67185;SDS011;54116;53.518;49.398;2024-03-02T10:46:50;10.48;;;3.83;;
67185;SDS011;54116;53.518;49.398;2024-03-02T10:49:18;7.32;;;2.53;;
67185;SDS011;54116;53.518;49.398;2024-03-02T10:51:47;6.60;;;2.65;;
67185;SDS011;54116;53.518;49.398;2024-03-02T10:54:14;5.82;;;2.45;;
67185;SDS011;54116;53.518;49.398;2024-03-02T10:56:41;9.15;;;2.53;;
67185;SDS011;54116;53.518;49.398;2024-03-02T10:59:17;7.22;;;2.33;;
67185;SDS011;54116;53.518;49.398;2024-03-02T11:02:02;6.25;;;2.42;;
67185;SDS011;54116;53.518;49.398;2024-03-02T11:04:30;7.00;;;2.75;;
67185;SDS011;54116;53.518;49.398;2024-03-02T11:09:28;6.82;;;2.03;;
67185;SDS011;54116;53.518;49.398;2024-03-02T11:12:02;4.68;;;2.40;;
67185;SDS011;54116;53.518;49.398;2024-03-02T11:14:29;10.55;;;2.88;;
67185;SDS011;54116;53.518;49.398;2024-03-02T11:17:00;8.02;;;3.05;;
67185;SDS011;54116;53.518;49.398;2024-03-02T11:19:29;7.13;;;2.45;;
67185;SDS011;54116;53.518;49.398;2024-03-02T11:21:56;5.85;;;2.13;;
67185;SDS011;54116;53.518;49.398;2024-03-02T11:27:04;8.57;;;2.30;;
67185;SDS011;54116;53.518;49.398;2024-03-02T11:32:02;7.28;;;2.22;;
67185;SDS011;54116;53.518;49.398;2024-03-02T11:34:37;12.52;;;3.67;;
67185;SDS011;54116;53.518;49.398;2024-03-02T11:37:06;7.60;;;2.33;;
67185;SDS011;54116;53.518;49.398;2024-03-02T11:39:32;8.63;;;2.83;;
67185;SDS011;54116;53.518;49.398;2024-03-02T11:41:59;7.28;;;2.20;;
67185;SDS011;54116;53.518;49.398;2024-03-02T11:44:28;8.73;;;2.22;;
67185;SDS011;54116;53.518;49.398;2024-03-02T11:46:58;7.50;;;1.90;;
67185;SDS011;54116;53.518;49.398;2024-03-02T11:52:05;9.13;;;2.80;;
67185;SDS011;54116;53.518;49.398;2024-03-02T11:54:35;9.85;;;3.42;;
67185;SDS011;54116;53.518;49.398;2024-03-02T11:57:07;23.58;;;16.00;;
67185;SDS011;54116;53.518;49.398;2024-03-02T11:59:34;9.18;;;3.92;;
67185;SDS011;54116;53.518;49.398;2024-03-02T12:04:26;7.85;;;2.35;;
67185;SDS011;54116;53.518;49.398;2024-03-02T12:06:59;7.80;;;2.78;;
67185;SDS011;54116;53.518;49.398;2024-03-02T12:09:29;7.03;;;2.83;;
67185;SDS011;54116;53.518;49.398;2024-03-02T12:12:02;10.80;;;3.70;;
67185;SDS011;54116;53.518;49.398;2024-03-02T12:14:32;9.50;;;3.05;;
67185;SDS011;54116;53.518;49.398;2024-03-02T12:16:59;9.38;;;3.00;;
67185;SDS011;54116;53.518;49.398;2024-03-02T12:19:26;8.30;;;3.30;;
67185;SDS011;54116;53.518;49.398;2024-03-02T12:21:53;7.07;;;2.10;;
67185;SDS011;54116;53.518;49.398;2024-03-02T12:24:20;7.63;;;2.33;;
67185;SDS011;54116;53.518;49.398;2024-03-02T12:26:48;10.32;;;2.83;;
67185;SDS011;54116;53.518;49.398;2024-03-02T12:29:15;10.32;;;2.88;;
67185;SDS011;54116;53.518;49.398;2024-03-02T12:31:43;8.68;;;3.60;;
67185;SDS011;54116;53.518;49.398;2024-03-02T12:34:13;8.45;;;3.55;;
67185;SDS011;54116;53.518;49.398;2024-03-02T12:36:41;7.65;;;3.05;;
67185;SDS011;54116;53.518;49.398;2024-03-02T12:39:07;7.78;;;2.28;;
67185;SDS011;54116;53.518;49.398;2024-03-02T12:41:38;6.97;;;2.35;;
67185;SDS011;54116;53.518;49.398;2024-03-02T12:44:05;7.75;;;2.35;;
67185;SDS011;54116;53.518;49.398;2024-03-02T12:46:32;8.40;;;2.75;;
67185;SDS011;54116;53.518;49.398;2024-03-02T12:48:58;7.82;;;2.80;;
67185;SDS011;54116;53.518;49.398;2024-03-02T12:51:33;9.88;;;2.50;;
67185;SDS011;54116;53.518;49.398;2024-03-02T12:56:27;9.77;;;2.90;;
67185;SDS011;54116;53.518;49.398;2024-03-02T12:58:53;13.40;;;3.10;;
67185;SDS011;54116;53.518;49.398;2024-03-02T13:01:20;11.38;;;3.00;;
67185;SDS011;54116;53.518;49.398;2024-03-02T13:06:18;8.52;;;2.92;;
67185;SDS011;54116;53.518;49.398;2024-03-02T13:08:45;9.63;;;3.35;;
67185;SDS011;54116;53.518;49.398;2024-03-02T13:11:15;10.32;;;3.55;;
67185;SDS011;54116;53.518;49.398;2024-03-02T13:13:42;14.13;;;5.97;;
67185;SDS011;54116;53.518;49.398;2024-03-02T13:16:27;17.08;;;5.18;;
67185;SDS011;54116;53.518;49.398;2024-03-02T13:21:21;13.73;;;4.00;;
67185;SDS011;54116;53.518;49.398;2024-03-02T13:23:47;12.48;;;3.85;;
67185;SDS011;54116;53.518;49.398;2024-03-02T13:26:13;11.77;;;4.25;;
67185;SDS011;54116;53.518;49.398;2024-03-02T13:28:39;13.43;;;4.10;;
67185;SDS011;54116;53.518;49.398;2024-03-02T13:33:31;17.15;;;4.50;;
67185;SDS011;54116;53.518;49.398;2024-03-02T13:35:58;13.75;;;4.07;;
67185;SDS011;54116;53.518;49.398;2024-03-02T13:38:24;12.00;;;4.22;;
67185;SDS011;54116;53.518;49.398;2024-03-02T13:40:50;13.23;;;4.30;;
67185;SDS011;54116;53.518;49.398;2024-03-02T13:43:16;12.65;;;3.90;;
67185;SDS011;54116;53.518;49.398;2024-03-02T13:45:44;11.43;;;4.53;;
67185;SDS011;54116;53.518;49.398;2024-03-02T13:50:37;11.55;;;4.10;;
67185;SDS011;54116;53.518;49.398;2024-03-02T13:55:29;13.07;;;4.03;;
67185;SDS011;54116;53.518;49.398;2024-03-02T13:57:56;11.50;;;3.90;;
67185;SDS011;54116;53.518;49.398;2024-03-02T14:00:22;11.90;;;4.13;;
67185;SDS011;54116;53.518;49.398;2024-03-02T14:02:48;15.80;;;5.13;;
67185;SDS011;54116;53.518;49.398;2024-03-02T14:05:15;13.30;;;5.30;;
67185;SDS011;54116;53.518;49.398;2024-03-02T14:10:08;12.02;;;4.22;;
67185;SDS011;54116;53.518;49.398;2024-03-02T14:12:36;11.65;;;4.22;;
67185;SDS011;54116;53.518;49.398;2024-03-02T14:15:03;14.50;;;4.05;;
67185;SDS011;54116;53.518;49.398;2024-03-02T14:17:29;11.77;;;3.92;;
67185;SDS011;54116;53.518;49.398;2024-03-02T14:19:58;10.07;;;3.63;;
67185;SDS011;54116;53.518;49.398;2024-03-02T14:22:25;10.23;;;3.42;;
67185;SDS011;54116;53.518;49.398;2024-03-02T14:24:51;9.70;;;4.28;;
67185;SDS011;54116;53.518;49.398;2024-03-02T14:27:17;12.07;;;3.70;;
67185;SDS011;54116;53.518;49.398;2024-03-02T14:29:44;12.32;;;4.50;;
67185;SDS011;54116;53.518;49.398;2024-03-02T14:32:10;11.23;;;4.20;;
67185;SDS011;54116;53.518;49.398;2024-03-02T14:34:36;10.07;;;3.92;;
67185;SDS011;54116;53.518;49.398;2024-03-02T14:37:03;16.90;;;7.05;;
67185;SDS011;54116;53.518;49.398;2024-03-02T14:39:30;83.55;;;32.83;;
67185;SDS011;54116;53.518;49.398;2024-03-02T14:42:00;97.35;;;39.60;;
67185;SDS011;54116;53.518;49.398;2024-03-02T14:44:27;100.78;;;42.47;;
67185;SDS011;54116;53.518;49.398;2024-03-02T14:46:53;99.03;;;41.40;;
67185;SDS011;54116;53.518;49.398;2024-03-02T14:49:19;75.82;;;31.08;;
67185;SDS011;54116;53.518;49.398;2024-03-02T14:51:45;57.28;;;25.20;;
67185;SDS011;54116;53.518;49.398;2024-03-02T14:54:11;42.80;;;17.63;;
67185;SDS011;54116;53.518;49.398;2024-03-02T14:56:37;19.70;;;7.25;;
67185;SDS011;54116;53.518;49.398;2024-03-02T14:59:04;14.57;;;5.70;;
67185;SDS011;54116;53.518;49.398;2024-03-02T15:01:30;16.10;;;6.47;;
67185;SDS011;54116;53.518;49.398;2024-03-02T15:03:56;13.30;;;5.03;;
67185;SDS011;54116;53.518;49.398;2024-03-02T15:06:22;12.30;;;4.63;;
67185;SDS011;54116;53.518;49.398;2024-03-02T15:08:49;16.40;;;6.57;;
67185;SDS011;54116;53.518;49.398;2024-03-02T15:13:42;13.68;;;4.60;;
67185;SDS011;54116;53.518;49.398;2024-03-02T15:16:08;11.20;;;4.63;;
67185;SDS011;54116;53.518;49.398;2024-03-02T15:18:34;13.27;;;4.28;;
67185;SDS011;54116;53.518;49.398;2024-03-02T15:21:01;13.20;;;4.00;;
67185;SDS011;54116;53.518;49.398;2024-03-02T15:25:55;14.18;;;3.75;;
67185;SDS011;54116;53.518;49.398;2024-03-02T15:28:21;11.40;;;3.78;;
67185;SDS011;54116;53.518;49.398;2024-03-02T15:33:32;10.75;;;3.38;;
67185;SDS011;54116;53.518;49.398;2024-03-02T15:35:59;11.90;;;4.15;;
67185;SDS011;54116;53.518;49.398;2024-03-02T15:38:26;11.57;;;4.22;;